createdAt,value
2019-02-23T00:01:55.696Z,7.03
2019-02-23T00:04:27.650Z,6.40
2019-02-23T00:06:59.975Z,6.90
2019-02-23T00:09:32.084Z,7.37
2019-02-23T00:12:04.808Z,7.10
2019-02-23T00:14:36.851Z,6.47
2019-02-23T00:17:08.610Z,6.50
2019-02-23T00:19:41.011Z,5.97
2019-02-23T00:22:12.817Z,7.07
2019-02-23T00:24:44.571Z,7.47
2019-02-23T00:27:17.308Z,8.07
2019-02-23T00:29:49.276Z,6.33
2019-02-23T00:32:22.106Z,7.60
2019-02-23T00:34:53.969Z,6.50
2019-02-23T00:37:25.662Z,7.42
2019-02-23T00:39:57.268Z,8.33
2019-02-23T00:42:28.716Z,7.97
2019-02-23T00:45:00.864Z,8.07
2019-02-23T00:47:44.143Z,7.40
2019-02-23T00:50:20.224Z,8.60
2019-02-23T00:52:53.945Z,8.20
2019-02-23T00:55:27.781Z,8.03
2019-02-23T00:58:02.446Z,7.87
2019-02-23T01:01:08.276Z,8.00
2019-02-23T01:21:16.934Z,8.03
2019-02-23T01:24:08.798Z,7.43
2019-02-23T01:26:57.750Z,7.37
2019-02-23T01:29:58.610Z,4.73
2019-02-23T01:32:57.580Z,3.30
2019-02-23T01:35:57.126Z,3.17
2019-02-23T01:38:51.646Z,3.43
2019-02-23T01:41:59.457Z,3.70
2019-02-23T01:45:07.739Z,4.30
2019-02-23T01:48:31.422Z,3.60
2019-02-23T01:51:08.138Z,3.37
2019-02-23T01:53:46.375Z,3.60
2019-02-23T01:59:53.921Z,3.77
2019-02-23T02:09:54.965Z,4.10
2019-02-23T02:16:01.846Z,3.80
2019-02-23T02:18:36.546Z,4.00
2019-02-23T02:21:11.839Z,4.10
2019-02-23T02:26:36.410Z,5.10
2019-02-23T02:29:14.971Z,4.33
2019-02-23T02:31:49.129Z,5.33
2019-02-23T02:34:21.012Z,5.77
2019-02-23T02:36:58.118Z,4.97
2019-02-23T02:39:29.906Z,4.80
2019-02-23T02:42:04.817Z,4.90
2019-02-23T02:44:38.820Z,5.50
2019-02-23T02:47:12.020Z,5.07
2019-02-23T02:49:46.481Z,5.27
2019-02-23T02:52:17.851Z,5.30
2019-02-23T02:54:49.194Z,5.37
2019-02-23T02:57:20.738Z,5.67
2019-02-23T02:59:52.055Z,5.30
2019-02-23T03:02:23.568Z,5.03
2019-02-23T03:04:54.563Z,5.20
2019-02-23T03:07:25.700Z,5.53
2019-02-23T03:09:56.891Z,6.07
2019-02-23T03:12:28.424Z,6.70
2019-02-23T03:14:59.867Z,5.97
2019-02-23T03:17:31.442Z,5.43
2019-02-23T03:20:02.545Z,5.30
2019-02-23T03:22:33.864Z,5.57
2019-02-23T03:25:04.992Z,5.30
2019-02-23T03:27:36.027Z,4.60
2019-02-23T03:30:08.602Z,4.67
2019-02-23T03:32:40.355Z,5.33
2019-02-23T03:35:11.851Z,4.80
2019-02-23T03:37:43.234Z,4.83
2019-02-23T03:40:14.547Z,4.87
2019-02-23T03:42:45.930Z,4.80
2019-02-23T03:45:17.590Z,4.43
2019-02-23T03:47:48.966Z,4.80
2019-02-23T03:50:20.343Z,4.17
2019-02-23T03:52:51.479Z,4.40
2019-02-23T03:55:23.366Z,5.20
2019-02-23T03:57:54.788Z,4.73
2019-02-23T04:00:26.498Z,4.77
2019-02-23T04:02:57.379Z,4.60
2019-02-23T04:05:28.414Z,4.37
2019-02-23T04:08:00.274Z,4.60
2019-02-23T04:10:31.705Z,4.40
2019-02-23T04:13:02.989Z,4.83
2019-02-23T04:15:34.422Z,4.30
2019-02-23T04:18:05.382Z,4.20
2019-02-23T04:20:36.786Z,4.23
2019-02-23T04:23:07.505Z,4.53
2019-02-23T04:25:39.174Z,4.67
2019-02-23T04:28:09.917Z,4.70
2019-02-23T04:30:40.979Z,5.07
2019-02-23T04:33:11.623Z,4.27
2019-02-23T04:35:42.423Z,3.97
2019-02-23T04:38:13.816Z,4.83
2019-02-23T04:40:45.326Z,5.20
2019-02-23T04:43:17.051Z,4.63
2019-02-23T04:45:48.107Z,3.93
2019-02-23T04:48:19.668Z,3.93
2019-02-23T04:50:51.163Z,4.63
2019-02-23T04:53:22.637Z,4.53
2019-02-23T04:55:53.934Z,4.27
2019-02-23T04:58:25.095Z,4.17
2019-02-23T05:00:56.515Z,4.97
2019-02-23T05:03:27.584Z,5.00
2019-02-23T05:05:58.615Z,5.20
2019-02-23T05:08:30.521Z,4.83
2019-02-23T05:11:02.094Z,4.43
2019-02-23T05:13:33.260Z,4.73
2019-02-23T05:16:04.720Z,5.30
2019-02-23T05:18:35.294Z,5.33
2019-02-23T05:21:06.247Z,5.43
2019-02-23T05:23:37.361Z,5.07
2019-02-23T05:26:09.345Z,5.20
2019-02-23T05:28:40.514Z,5.73
2019-02-23T05:31:11.407Z,5.37
2019-02-23T05:33:42.355Z,5.20
2019-02-23T05:36:15.178Z,4.97
2019-02-23T05:38:46.003Z,5.60
2019-02-23T05:41:16.635Z,6.20
2019-02-23T05:43:47.233Z,6.53
2019-02-23T05:46:17.874Z,6.63
2019-02-23T05:48:48.445Z,7.73
2019-02-23T05:51:19.427Z,7.80
2019-02-23T05:53:50.081Z,5.13
2019-02-23T05:56:20.782Z,5.60
2019-02-23T05:58:51.967Z,5.20
2019-02-23T06:01:22.497Z,5.40
2019-02-23T06:03:53.357Z,5.00
2019-02-23T06:06:24.422Z,4.13
2019-02-23T06:08:55.561Z,5.83
2019-02-23T06:11:26.426Z,5.50
2019-02-23T06:13:57.871Z,5.83
2019-02-23T06:16:28.504Z,6.07
2019-02-23T06:18:59.638Z,5.33
2019-02-23T06:21:30.987Z,5.70
2019-02-23T06:24:02.688Z,5.63
2019-02-23T06:26:34.128Z,6.03
2019-02-23T06:29:05.213Z,5.17
2019-02-23T06:31:36.132Z,5.73
2019-02-23T06:34:15.488Z,6.00
2019-02-23T06:36:40.153Z,5.13
2019-02-23T06:39:10.764Z,4.43
2019-02-23T06:41:41.723Z,4.90
2019-02-23T06:44:12.541Z,5.13
2019-02-23T06:46:43.136Z,5.33
2019-02-23T06:49:13.907Z,4.63
2019-02-23T06:51:44.827Z,5.10
2019-02-23T06:54:15.482Z,3.97
2019-02-23T06:56:46.037Z,4.80
2019-02-23T06:59:19.836Z,5.47
2019-02-23T07:01:50.355Z,5.57
2019-02-23T07:04:21.256Z,4.90
2019-02-23T07:06:52.057Z,4.73
2019-02-23T07:09:22.745Z,4.60
2019-02-23T07:11:53.743Z,4.60
2019-02-23T07:14:24.467Z,4.93
2019-02-23T07:16:54.990Z,4.10
2019-02-23T07:19:25.780Z,3.50
2019-02-23T07:21:56.395Z,3.93
2019-02-23T07:24:27.007Z,4.40
2019-02-23T07:26:58.061Z,4.87
2019-02-23T07:29:28.874Z,5.00
2019-02-23T07:31:59.818Z,3.83
2019-02-23T07:34:30.608Z,4.07
2019-02-23T07:37:01.182Z,4.10
2019-02-23T07:39:32.435Z,4.13
2019-02-23T07:42:03.472Z,4.13
2019-02-23T07:44:35.292Z,3.73
2019-02-23T07:47:05.908Z,4.27
2019-02-23T07:49:37.407Z,4.87
2019-02-23T07:52:08.561Z,4.70
2019-02-23T07:54:39.453Z,5.07
2019-02-23T07:57:10.406Z,4.27
2019-02-23T07:59:41.739Z,4.30
2019-02-23T08:02:13.412Z,4.00
2019-02-23T08:04:44.324Z,4.30
2019-02-23T08:07:15.733Z,4.00
2019-02-23T08:09:46.852Z,3.80
2019-02-23T08:12:18.126Z,3.30
2019-02-23T08:14:49.786Z,3.17
2019-02-23T08:17:20.428Z,3.43
2019-02-23T08:19:51.679Z,3.30
2019-02-23T08:22:22.475Z,3.17
2019-02-23T08:24:53.020Z,3.33
2019-02-23T08:27:24.076Z,3.40
2019-02-23T08:29:55.275Z,3.20
2019-02-23T08:32:26.543Z,3.43
2019-02-23T08:34:57.116Z,3.10
2019-02-23T08:37:27.783Z,3.50
2019-02-23T08:39:58.752Z,3.47
2019-02-23T08:42:29.554Z,3.37
2019-02-23T08:45:00.423Z,3.27
2019-02-23T08:47:31.192Z,3.23
2019-02-23T08:50:01.894Z,3.93
2019-02-23T08:52:32.617Z,3.40
2019-02-23T08:55:03.444Z,3.30
2019-02-23T08:57:34.251Z,4.20
2019-02-23T09:00:06.033Z,3.20
2019-02-23T09:02:37.394Z,3.70
2019-02-23T09:05:10.010Z,4.27
2019-02-23T09:07:40.899Z,4.20
2019-02-23T09:10:12.900Z,4.40
2019-02-23T09:12:44.483Z,4.57
2019-02-23T09:15:15.646Z,4.30
2019-02-23T09:17:46.311Z,4.33
2019-02-23T09:20:28.268Z,3.90
2019-02-23T09:22:59.834Z,3.10
2019-02-23T09:25:22.635Z,3.67
2019-02-23T09:27:53.947Z,3.13
2019-02-23T09:30:25.335Z,3.90
2019-02-23T09:32:56.434Z,4.13
2019-02-23T09:35:27.840Z,4.40
2019-02-23T09:37:59.950Z,4.70
2019-02-23T09:40:30.834Z,4.43
2019-02-23T09:43:01.776Z,4.60
2019-02-23T09:45:34.908Z,4.33
2019-02-23T09:48:05.937Z,4.93
2019-02-23T09:50:38.419Z,4.70
2019-02-23T09:53:11.493Z,4.73
2019-02-23T09:55:42.451Z,4.77
2019-02-23T09:58:13.182Z,4.20
2019-02-23T10:00:43.778Z,4.47
2019-02-23T10:03:14.933Z,4.43
2019-02-23T10:05:45.632Z,4.20
2019-02-23T10:22:46.210Z,4.30
2019-02-23T10:25:18.434Z,4.37
2019-02-23T10:27:50.161Z,5.00
2019-02-23T10:30:21.851Z,5.07
2019-02-23T10:32:53.071Z,4.13
2019-02-23T10:35:25.081Z,5.30
2019-02-23T10:37:56.739Z,4.63
2019-02-23T10:40:28.572Z,4.03
2019-02-23T10:43:00.622Z,4.60
2019-02-23T10:45:32.360Z,4.77
2019-02-23T10:48:02.946Z,4.30
2019-02-23T10:50:34.255Z,3.97
2019-02-23T10:53:06.083Z,5.00
2019-02-23T10:55:37.495Z,4.40
2019-02-23T10:58:08.010Z,4.73
2019-02-23T11:00:39.824Z,4.83
2019-02-23T11:03:11.866Z,4.57
2019-02-23T11:05:43.669Z,3.70
2019-02-23T11:08:15.247Z,4.03
2019-02-23T11:10:46.998Z,4.17
2019-02-23T11:13:18.139Z,3.73
2019-02-23T11:15:49.688Z,4.17
2019-02-23T11:18:20.332Z,3.40
2019-02-23T11:20:52.159Z,3.87
2019-02-23T11:23:23.335Z,4.03
2019-02-23T11:25:54.066Z,3.90
2019-02-23T11:28:25.124Z,3.90
2019-02-23T11:30:57.729Z,4.00
2019-02-23T11:33:31.547Z,3.40
2019-02-23T11:36:07.385Z,2.80
2019-02-23T11:38:39.269Z,3.70
2019-02-23T11:41:10.884Z,4.80
2019-02-23T11:43:42.987Z,4.03
2019-02-23T11:46:17.865Z,3.33
2019-02-23T11:48:49.391Z,4.47
2019-02-23T11:51:21.774Z,4.13
2019-02-23T11:53:55.308Z,4.33
2019-02-23T11:56:25.124Z,5.03
2019-02-23T11:59:02.301Z,4.43
2019-02-23T12:01:32.929Z,3.70
2019-02-23T12:04:05.483Z,4.03
2019-02-23T12:06:36.723Z,4.33
2019-02-23T12:09:08.546Z,4.03
2019-02-23T12:11:40.021Z,4.63
2019-02-23T12:14:11.170Z,4.37
2019-02-23T12:16:43.057Z,4.07
2019-02-23T12:19:16.860Z,4.43
2019-02-23T12:21:47.878Z,4.60
2019-02-23T12:24:21.274Z,4.20
2019-02-23T12:26:55.718Z,4.47
2019-02-23T12:29:35.419Z,3.80
2019-02-23T12:32:08.213Z,4.77
2019-02-23T12:34:40.963Z,4.83
2019-02-23T12:37:15.198Z,3.60
2019-02-23T12:39:48.596Z,4.10
2019-02-23T12:42:20.660Z,4.00
2019-02-23T12:44:54.117Z,4.10
2019-02-23T12:47:28.271Z,4.23
2019-02-23T12:50:01.743Z,4.53
2019-02-23T12:52:35.321Z,4.33
2019-02-23T12:55:10.768Z,3.90
2019-02-23T12:57:42.120Z,4.60
2019-02-23T13:00:19.345Z,4.23
2019-02-23T13:02:52.833Z,3.97
2019-02-23T13:05:28.004Z,4.90
2019-02-23T13:08:02.436Z,3.57
2019-02-23T13:10:41.346Z,4.00
2019-02-23T13:13:48.459Z,4.00
2019-02-23T13:16:58.892Z,3.63
2019-02-23T13:19:48.279Z,4.10
2019-02-23T13:23:03.292Z,3.30
2019-02-23T13:26:17.772Z,3.67
2019-02-23T13:30:00.047Z,3.20
2019-02-23T13:33:15.690Z,3.47
2019-02-23T13:37:13.042Z,3.20
2019-02-23T13:40:37.317Z,3.40
2019-02-23T13:43:45.240Z,3.73
2019-02-23T13:47:22.382Z,4.07
2019-02-23T13:50:47.734Z,4.40
2019-02-23T13:54:39.291Z,3.83
2019-02-23T14:01:59.244Z,3.60
2019-02-23T14:21:00.228Z,4.37
2019-02-23T14:24:12.402Z,4.53
2019-02-23T14:28:19.869Z,3.57
2019-02-23T14:31:23.742Z,4.23
2019-02-23T14:34:51.966Z,4.00
2019-02-23T14:42:08.727Z,3.47
2019-02-23T14:45:31.707Z,5.17
2019-02-23T14:48:42.923Z,4.20
2019-02-23T14:52:28.526Z,4.00
2019-02-23T14:58:45.998Z,3.90
2019-02-23T15:01:57.415Z,3.90
2019-02-23T15:05:08.982Z,4.03
2019-02-23T15:08:25.314Z,3.43
2019-02-23T15:12:02.800Z,3.80
2019-02-23T15:18:43.151Z,4.00
2019-02-23T15:22:03.202Z,3.97
2019-02-23T15:29:05.972Z,5.10
2019-02-23T15:32:27.052Z,4.37
2019-02-23T15:35:31.979Z,4.73
2019-02-23T15:39:23.189Z,3.63
2019-02-23T15:42:50.992Z,5.20
2019-02-23T15:45:55.531Z,4.80
2019-02-23T15:49:20.736Z,4.83
2019-02-23T15:52:52.557Z,5.10
2019-02-23T15:55:48.152Z,5.30
2019-02-23T15:58:49.618Z,5.50
2019-02-23T16:02:02.273Z,6.00
2019-02-23T16:09:30.646Z,6.60
2019-02-23T16:12:11.405Z,6.13
2019-02-23T16:15:58.653Z,5.30
2019-02-23T16:18:42.016Z,5.07
2019-02-23T16:21:30.017Z,4.77
2019-02-23T16:24:04.234Z,4.30
2019-02-23T16:26:42.073Z,3.57
2019-02-23T16:29:19.585Z,3.30
2019-02-23T16:32:00.497Z,3.70
2019-02-23T16:34:31.704Z,3.03
2019-02-23T16:37:07.566Z,3.47
2019-02-23T16:39:42.367Z,2.87
2019-02-23T16:42:14.175Z,3.10
2019-02-23T16:44:49.260Z,3.47
2019-02-23T16:47:21.194Z,3.33
2019-02-23T16:50:11.443Z,4.20
2019-02-23T16:52:43.462Z,4.30
2019-02-23T16:55:14.949Z,4.50
2019-02-23T16:57:46.980Z,4.10
2019-02-23T17:00:20.273Z,3.53
2019-02-23T17:02:54.691Z,3.40
2019-02-23T17:05:26.039Z,3.77
2019-02-23T17:07:57.260Z,3.23
2019-02-23T17:10:27.973Z,3.30
2019-02-23T17:12:58.708Z,3.23
2019-02-23T17:15:30.101Z,3.43
2019-02-23T17:18:01.794Z,4.07
2019-02-23T17:20:33.330Z,3.10
2019-02-23T17:23:05.188Z,3.47
2019-02-23T17:25:36.044Z,3.30
2019-02-23T17:28:07.264Z,3.97
2019-02-23T17:30:38.190Z,3.27
2019-02-23T17:33:09.191Z,3.43
2019-02-23T17:35:40.144Z,3.73
2019-02-23T17:38:16.074Z,3.40
2019-02-23T17:40:43.672Z,3.13
2019-02-23T17:43:14.958Z,3.40
2019-02-23T17:45:45.775Z,3.27
2019-02-23T17:48:16.435Z,3.03
2019-02-23T17:50:47.186Z,3.83
2019-02-23T17:53:19.752Z,3.90
2019-02-23T17:55:50.207Z,3.90
2019-02-23T17:58:20.753Z,3.93
2019-02-23T18:00:51.385Z,3.50
2019-02-23T18:03:22.311Z,3.73
2019-02-23T18:05:52.859Z,3.40
2019-02-23T18:08:23.429Z,3.30
2019-02-23T18:10:54.786Z,3.40
2019-02-23T18:13:26.082Z,3.37
2019-02-23T18:15:58.690Z,4.10
2019-02-23T18:18:34.033Z,3.80
2019-02-23T18:21:05.309Z,3.40
2019-02-23T18:23:36.618Z,4.27
2019-02-23T18:26:07.188Z,3.90
2019-02-23T18:28:37.852Z,3.93
2019-02-23T18:31:08.523Z,4.03
2019-02-23T18:33:39.344Z,4.30
2019-02-23T18:36:10.320Z,3.40
2019-02-23T18:38:40.894Z,4.70
2019-02-23T18:41:12.056Z,4.07
2019-02-23T18:43:43.094Z,3.90
2019-02-23T18:46:14.539Z,4.03
2019-02-23T18:48:46.182Z,3.70
2019-02-23T18:51:17.754Z,3.83
2019-02-23T18:53:49.623Z,3.93
2019-02-23T18:56:20.555Z,4.50
2019-02-23T18:58:51.198Z,4.20
2019-02-23T19:01:21.823Z,5.80
2019-02-23T19:03:52.524Z,5.63
2019-02-23T19:06:23.155Z,5.60
2019-02-23T19:08:54.469Z,6.30
2019-02-23T19:11:25.145Z,6.90
2019-02-23T19:13:58.621Z,6.90
2019-02-23T19:16:29.869Z,7.60
2019-02-23T19:19:00.777Z,7.00
2019-02-23T19:21:32.123Z,6.13
2019-02-23T19:24:03.936Z,7.43
2019-02-23T19:26:38.314Z,7.63
2019-02-23T19:29:06.895Z,7.10
2019-02-23T19:31:37.667Z,7.30
2019-02-23T19:34:08.744Z,7.47
2019-02-23T19:36:39.779Z,7.23
2019-02-23T19:39:12.393Z,7.43
2019-02-23T19:41:44.090Z,7.90
2019-02-23T19:44:16.437Z,8.40
2019-02-23T19:46:56.885Z,8.20
2019-02-23T19:49:29.349Z,7.57
2019-02-23T19:52:01.849Z,7.97
2019-02-23T19:54:33.988Z,7.90
2019-02-23T19:57:09.180Z,7.37
2019-02-23T19:59:40.942Z,8.27
2019-02-23T20:02:12.633Z,7.60
2019-02-23T20:04:48.127Z,7.70
2019-02-23T20:07:20.701Z,7.70
2019-02-23T20:09:59.158Z,7.63
2019-02-23T20:12:32.959Z,7.93
2019-02-23T20:15:05.754Z,7.80
2019-02-23T20:17:38.064Z,8.03
2019-02-23T20:20:09.948Z,8.57
2019-02-23T20:22:41.551Z,7.90
2019-02-23T20:25:14.295Z,6.87
2019-02-23T20:27:46.529Z,7.63
2019-02-23T20:30:18.514Z,7.03
2019-02-23T20:32:50.763Z,7.77
2019-02-23T20:35:22.486Z,7.20
2019-02-23T20:37:54.029Z,6.97
2019-02-23T20:40:26.618Z,7.70
2019-02-23T20:42:58.240Z,7.43
2019-02-23T20:45:29.925Z,7.30
2019-02-23T20:48:02.576Z,7.73
2019-02-23T20:50:34.785Z,8.47
2019-02-23T20:53:07.097Z,7.73
2019-02-23T20:55:39.020Z,8.27
2019-02-23T20:58:10.749Z,8.43
2019-02-23T21:00:42.679Z,9.10
2019-02-23T21:03:14.381Z,8.83
2019-02-23T21:05:46.425Z,8.97
2019-02-23T21:08:20.305Z,9.13
2019-02-23T21:10:54.647Z,8.37
2019-02-23T21:13:26.610Z,8.60
2019-02-23T21:15:58.872Z,7.77
2019-02-23T21:18:30.836Z,7.20
2019-02-23T21:21:02.501Z,7.80
2019-02-23T21:23:35.220Z,7.20
2019-02-23T21:26:07.013Z,7.73
2019-02-23T21:28:38.699Z,7.00
2019-02-23T21:31:10.643Z,6.70
2019-02-23T21:33:42.574Z,6.77
2019-02-23T21:36:14.428Z,7.37
2019-02-23T21:38:47.871Z,7.03
2019-02-23T21:41:20.379Z,7.07
2019-02-23T21:43:55.616Z,6.40
2019-02-23T21:46:28.291Z,7.53
2019-02-23T21:49:00.139Z,7.57
2019-02-23T21:51:31.986Z,8.53
2019-02-23T21:54:09.981Z,7.90
2019-02-23T21:56:37.797Z,8.10
2019-02-23T21:59:10.061Z,7.93
2019-02-23T22:01:41.564Z,8.37
2019-02-23T22:04:13.486Z,8.10
2019-02-23T22:06:45.501Z,8.43
2019-02-23T22:09:17.555Z,8.77
2019-02-23T22:11:49.635Z,8.13
2019-02-23T22:14:21.478Z,8.80
2019-02-23T22:16:53.704Z,9.10
2019-02-23T22:19:26.010Z,8.33
2019-02-23T22:21:58.190Z,8.73
2019-02-23T22:24:29.947Z,8.40
2019-02-23T22:27:02.969Z,8.40
2019-02-23T22:29:35.197Z,7.90
2019-02-23T22:32:06.854Z,7.83
2019-02-23T22:34:38.194Z,8.40
2019-02-23T22:37:12.783Z,7.37
2019-02-23T22:39:44.681Z,7.40
2019-02-23T22:42:16.610Z,6.87
2019-02-23T22:44:50.671Z,6.93
2019-02-23T22:47:22.983Z,6.97
2019-02-23T22:49:54.484Z,7.27
2019-02-23T22:52:27.402Z,7.03
2019-02-23T22:55:00.347Z,7.13
2019-02-23T22:57:40.293Z,6.43
2019-02-23T23:00:05.603Z,6.50
2019-02-23T23:02:37.351Z,5.70
2019-02-23T23:05:09.489Z,7.00
2019-02-23T23:07:42.222Z,5.97
2019-02-23T23:10:13.567Z,6.50
2019-02-23T23:12:44.570Z,6.43
2019-02-23T23:15:19.777Z,6.10
2019-02-23T23:17:55.844Z,6.23
2019-02-23T23:20:29.275Z,5.67
2019-02-23T23:23:00.813Z,5.40
2019-02-23T23:25:34.717Z,5.70
2019-02-23T23:28:06.676Z,5.37
2019-02-23T23:30:38.129Z,6.00
2019-02-23T23:33:13.951Z,5.67
2019-02-23T23:35:45.934Z,5.77
2019-02-23T23:38:18.785Z,6.10
2019-02-23T23:40:51.429Z,6.20
2019-02-23T23:43:24.248Z,6.13
2019-02-23T23:45:59.065Z,5.67
2019-02-23T23:48:30.491Z,5.37
2019-02-23T23:51:04.489Z,5.23
2019-02-23T23:53:36.834Z,5.77
2019-02-23T23:56:08.116Z,5.73
2019-02-23T23:58:40.387Z,5.93
